sensor_id;sensor_type;location;lat;lon;timestamp;P1;durP1;ratioP1;P2;durP2;ratioP2
46729;SDS011;32476;50.002;11.854;2022-12-18T00:01:25;6.17;;;3.30;;
46729;SDS011;32476;50.002;11.854;2022-12-18T00:03:54;6.03;;;3.10;;
46729;SDS011;32476;50.002;11.854;2022-12-18T00:06:21;7.97;;;3.97;;
46729;SDS011;32476;50.002;11.854;2022-12-18T00:08:49;7.37;;;3.27;;
46729;SDS011;32476;50.002;11.854;2022-12-18T00:11:18;4.93;;;3.33;;
46729;SDS011;32476;50.002;11.854;2022-12-18T00:13:47;12.27;;;5.47;;
46729;SDS011;32476;50.002;11.854;2022-12-18T00:16:15;82.70;;;30.63;;
46729;SDS011;32476;50.002;11.854;2022-12-18T00:18:47;37.50;;;18.57;;
46729;SDS011;32476;50.002;11.854;2022-12-18T00:21:15;15.27;;;9.40;;
46729;SDS011;32476;50.002;11.854;2022-12-18T00:23:42;16.60;;;6.90;;
46729;SDS011;32476;50.002;11.854;2022-12-18T00:26:11;10.23;;;5.10;;
46729;SDS011;32476;50.002;11.854;2022-12-18T00:28:41;8.30;;;4.57;;
46729;SDS011;32476;50.002;11.854;2022-12-18T00:31:12;6.83;;;3.73;;
46729;SDS011;32476;50.002;11.854;2022-12-18T00:33:45;3.87;;;2.50;;
46729;SDS011;32476;50.002;11.854;2022-12-18T00:36:18;11.03;;;3.80;;
46729;SDS011;32476;50.002;11.854;2022-12-18T00:38:55;9.83;;;4.13;;
46729;SDS011;32476;50.002;11.854;2022-12-18T00:41:23;18.93;;;7.93;;
46729;SDS011;32476;50.002;11.854;2022-12-18T00:44:10;18.13;;;6.60;;
46729;SDS011;32476;50.002;11.854;2022-12-18T00:46:38;10.03;;;4.70;;
46729;SDS011;32476;50.002;11.854;2022-12-18T00:49:05;25.13;;;9.67;;
46729;SDS011;32476;50.002;11.854;2022-12-18T00:51:33;48.43;;;17.47;;
46729;SDS011;32476;50.002;11.854;2022-12-18T00:53:59;19.40;;;9.63;;
46729;SDS011;32476;50.002;11.854;2022-12-18T00:56:25;7.17;;;3.53;;
46729;SDS011;32476;50.002;11.854;2022-12-18T00:58:53;7.07;;;3.00;;
46729;SDS011;32476;50.002;11.854;2022-12-18T01:01:19;5.93;;;3.43;;
46729;SDS011;32476;50.002;11.854;2022-12-18T01:03:45;11.57;;;4.90;;
46729;SDS011;32476;50.002;11.854;2022-12-18T01:06:13;23.43;;;10.40;;
46729;SDS011;32476;50.002;11.854;2022-12-18T01:08:41;20.73;;;7.93;;
46729;SDS011;32476;50.002;11.854;2022-12-18T01:11:12;22.63;;;8.13;;
46729;SDS011;32476;50.002;11.854;2022-12-18T01:13:44;8.37;;;4.03;;
46729;SDS011;32476;50.002;11.854;2022-12-18T01:16:13;6.60;;;3.10;;
46729;SDS011;32476;50.002;11.854;2022-12-18T01:18:41;7.40;;;3.67;;
46729;SDS011;32476;50.002;11.854;2022-12-18T01:21:13;19.03;;;8.10;;
46729;SDS011;32476;50.002;11.854;2022-12-18T01:23:41;7.47;;;3.23;;
46729;SDS011;32476;50.002;11.854;2022-12-18T01:26:14;5.53;;;2.40;;
46729;SDS011;32476;50.002;11.854;2022-12-18T01:28:41;1.73;;;1.50;;
46729;SDS011;32476;50.002;11.854;2022-12-18T01:31:10;3.57;;;2.00;;
46729;SDS011;32476;50.002;11.854;2022-12-18T01:33:44;3.13;;;2.00;;
46729;SDS011;32476;50.002;11.854;2022-12-18T01:36:14;4.10;;;1.90;;
46729;SDS011;32476;50.002;11.854;2022-12-18T01:38:47;2.00;;;1.80;;
46729;SDS011;32476;50.002;11.854;2022-12-18T01:41:15;2.00;;;1.80;;
46729;SDS011;32476;50.002;11.854;2022-12-18T01:43:46;6.17;;;2.90;;
46729;SDS011;32476;50.002;11.854;2022-12-18T01:46:24;5.37;;;3.20;;
46729;SDS011;32476;50.002;11.854;2022-12-18T01:48:58;2.23;;;2.00;;
46729;SDS011;32476;50.002;11.854;2022-12-18T01:51:28;4.83;;;2.33;;
46729;SDS011;32476;50.002;11.854;2022-12-18T01:53:55;2.60;;;2.17;;
46729;SDS011;32476;50.002;11.854;2022-12-18T01:56:24;6.20;;;2.53;;
46729;SDS011;32476;50.002;11.854;2022-12-18T01:58:56;2.87;;;2.13;;
46729;SDS011;32476;50.002;11.854;2022-12-18T02:01:28;6.87;;;2.47;;
46729;SDS011;32476;50.002;11.854;2022-12-18T02:04:14;2.10;;;1.63;;
46729;SDS011;32476;50.002;11.854;2022-12-18T02:06:53;3.03;;;2.27;;
46729;SDS011;32476;50.002;11.854;2022-12-18T02:09:50;4.43;;;2.50;;
46729;SDS011;32476;50.002;11.854;2022-12-18T02:12:30;3.07;;;2.10;;
46729;SDS011;32476;50.002;11.854;2022-12-18T02:15:13;2.77;;;2.10;;
46729;SDS011;32476;50.002;11.854;2022-12-18T02:17:54;4.43;;;2.73;;
46729;SDS011;32476;50.002;11.854;2022-12-18T02:20:46;3.40;;;2.10;;
46729;SDS011;32476;50.002;11.854;2022-12-18T02:28:45;5.03;;;2.27;;
46729;SDS011;32476;50.002;11.854;2022-12-18T02:31:23;4.87;;;2.43;;
46729;SDS011;32476;50.002;11.854;2022-12-18T02:33:54;5.20;;;2.60;;
46729;SDS011;32476;50.002;11.854;2022-12-18T02:36:27;2.33;;;2.13;;
46729;SDS011;32476;50.002;11.854;2022-12-18T02:38:54;4.10;;;1.90;;
46729;SDS011;32476;50.002;11.854;2022-12-18T02:41:22;5.23;;;2.13;;
46729;SDS011;32476;50.002;11.854;2022-12-18T02:43:55;6.40;;;2.43;;
46729;SDS011;32476;50.002;11.854;2022-12-18T02:46:29;6.10;;;1.83;;
46729;SDS011;32476;50.002;11.854;2022-12-18T02:49:52;3.63;;;2.20;;
46729;SDS011;32476;50.002;11.854;2022-12-18T02:58:27;2.23;;;1.83;;
46729;SDS011;32476;50.002;11.854;2022-12-18T03:04:25;6.50;;;2.37;;
46729;SDS011;32476;50.002;11.854;2022-12-18T03:06:49;3.57;;;2.07;;
46729;SDS011;32476;50.002;11.854;2022-12-18T03:09:36;35.43;;;13.30;;
46729;SDS011;32476;50.002;11.854;2022-12-18T03:12:17;10.73;;;6.83;;
46729;SDS011;32476;50.002;11.854;2022-12-18T03:15:01;16.00;;;10.43;;
46729;SDS011;32476;50.002;11.854;2022-12-18T03:17:55;10.67;;;6.50;;
46729;SDS011;32476;50.002;11.854;2022-12-18T03:20:34;14.90;;;6.23;;
46729;SDS011;32476;50.002;11.854;2022-12-18T03:23:06;6.57;;;3.70;;
46729;SDS011;32476;50.002;11.854;2022-12-18T03:25:37;8.30;;;3.73;;
46729;SDS011;32476;50.002;11.854;2022-12-18T03:28:12;13.00;;;5.17;;
46729;SDS011;32476;50.002;11.854;2022-12-18T03:30:43;8.70;;;4.87;;
46729;SDS011;32476;50.002;11.854;2022-12-18T03:33:55;7.00;;;4.20;;
46729;SDS011;32476;50.002;11.854;2022-12-18T03:36:18;6.90;;;3.80;;
46729;SDS011;32476;50.002;11.854;2022-12-18T03:38:46;4.17;;;2.87;;
46729;SDS011;32476;50.002;11.854;2022-12-18T03:44:08;3.70;;;2.90;;
46729;SDS011;32476;50.002;11.854;2022-12-18T03:55:05;4.63;;;2.47;;
46729;SDS011;32476;50.002;11.854;2022-12-18T03:57:34;6.90;;;3.40;;
46729;SDS011;32476;50.002;11.854;2022-12-18T04:00:04;13.97;;;6.17;;
46729;SDS011;32476;50.002;11.854;2022-12-18T04:02:37;20.10;;;8.53;;
46729;SDS011;32476;50.002;11.854;2022-12-18T04:05:11;8.60;;;5.57;;
46729;SDS011;32476;50.002;11.854;2022-12-18T04:07:40;18.27;;;7.83;;
46729;SDS011;32476;50.002;11.854;2022-12-18T04:10:07;12.77;;;5.40;;
46729;SDS011;32476;50.002;11.854;2022-12-18T04:12:34;7.43;;;3.93;;
46729;SDS011;32476;50.002;11.854;2022-12-18T04:15:05;10.10;;;5.37;;
46729;SDS011;32476;50.002;11.854;2022-12-18T04:17:31;12.60;;;5.87;;
46729;SDS011;32476;50.002;11.854;2022-12-18T04:19:57;13.67;;;6.77;;
46729;SDS011;32476;50.002;11.854;2022-12-18T04:22:25;14.43;;;5.80;;
46729;SDS011;32476;50.002;11.854;2022-12-18T04:24:51;21.30;;;10.03;;
46729;SDS011;32476;50.002;11.854;2022-12-18T04:27:17;25.17;;;9.37;;
46729;SDS011;32476;50.002;11.854;2022-12-18T04:29:44;16.43;;;6.80;;
46729;SDS011;32476;50.002;11.854;2022-12-18T04:32:10;12.20;;;5.30;;
46729;SDS011;32476;50.002;11.854;2022-12-18T04:34:36;6.40;;;3.30;;
46729;SDS011;32476;50.002;11.854;2022-12-18T04:37:03;5.93;;;4.20;;
46729;SDS011;32476;50.002;11.854;2022-12-18T04:39:29;9.70;;;4.60;;
46729;SDS011;32476;50.002;11.854;2022-12-18T04:41:55;7.60;;;4.50;;
46729;SDS011;32476;50.002;11.854;2022-12-18T04:44:23;6.57;;;3.77;;
46729;SDS011;32476;50.002;11.854;2022-12-18T04:46:49;5.83;;;3.40;;
46729;SDS011;32476;50.002;11.854;2022-12-18T04:49:14;11.23;;;3.77;;
46729;SDS011;32476;50.002;11.854;2022-12-18T04:51:42;10.27;;;4.97;;
46729;SDS011;32476;50.002;11.854;2022-12-18T04:54:08;14.30;;;6.20;;
46729;SDS011;32476;50.002;11.854;2022-12-18T04:56:34;7.50;;;4.27;;
46729;SDS011;32476;50.002;11.854;2022-12-18T04:59:01;8.27;;;4.70;;
46729;SDS011;32476;50.002;11.854;2022-12-18T05:01:27;7.90;;;4.67;;
46729;SDS011;32476;50.002;11.854;2022-12-18T05:03:53;6.33;;;4.07;;
46729;SDS011;32476;50.002;11.854;2022-12-18T05:06:20;14.47;;;7.37;;
46729;SDS011;32476;50.002;11.854;2022-12-18T05:08:46;9.97;;;5.37;;
46729;SDS011;32476;50.002;11.854;2022-12-18T05:11:13;3.60;;;2.57;;
46729;SDS011;32476;50.002;11.854;2022-12-18T05:13:44;2.70;;;2.40;;
46729;SDS011;32476;50.002;11.854;2022-12-18T05:16:12;3.70;;;2.00;;
46729;SDS011;32476;50.002;11.854;2022-12-18T05:18:39;3.23;;;2.00;;
46729;SDS011;32476;50.002;11.854;2022-12-18T05:21:06;4.03;;;2.33;;
46729;SDS011;32476;50.002;11.854;2022-12-18T05:23:32;7.27;;;3.40;;
46729;SDS011;32476;50.002;11.854;2022-12-18T05:25:59;8.57;;;4.27;;
46729;SDS011;32476;50.002;11.854;2022-12-18T05:28:29;7.83;;;4.53;;
46729;SDS011;32476;50.002;11.854;2022-12-18T05:30:58;5.17;;;3.10;;
46729;SDS011;32476;50.002;11.854;2022-12-18T05:33:27;6.30;;;2.50;;
46729;SDS011;32476;50.002;11.854;2022-12-18T05:35:58;5.30;;;2.47;;
46729;SDS011;32476;50.002;11.854;2022-12-18T05:38:26;4.30;;;2.07;;
46729;SDS011;32476;50.002;11.854;2022-12-18T05:40:53;2.93;;;2.30;;
46729;SDS011;32476;50.002;11.854;2022-12-18T05:43:21;37.97;;;17.10;;
46729;SDS011;32476;50.002;11.854;2022-12-18T05:45:48;20.17;;;8.17;;
46729;SDS011;32476;50.002;11.854;2022-12-18T05:48:15;9.43;;;5.10;;
46729;SDS011;32476;50.002;11.854;2022-12-18T05:50:43;7.30;;;4.13;;
46729;SDS011;32476;50.002;11.854;2022-12-18T05:53:12;7.10;;;4.30;;
46729;SDS011;32476;50.002;11.854;2022-12-18T05:55:43;9.47;;;5.50;;
46729;SDS011;32476;50.002;11.854;2022-12-18T05:58:10;9.50;;;5.20;;
46729;SDS011;32476;50.002;11.854;2022-12-18T06:00:38;7.77;;;5.40;;
46729;SDS011;32476;50.002;11.854;2022-12-18T06:03:09;4.97;;;3.70;;
46729;SDS011;32476;50.002;11.854;2022-12-18T06:05:36;4.30;;;3.47;;
46729;SDS011;32476;50.002;11.854;2022-12-18T06:08:10;6.90;;;3.27;;
46729;SDS011;32476;50.002;11.854;2022-12-18T06:10:37;5.87;;;3.50;;
46729;SDS011;32476;50.002;11.854;2022-12-18T06:13:04;8.43;;;4.40;;
46729;SDS011;32476;50.002;11.854;2022-12-18T06:15:35;5.90;;;3.73;;
46729;SDS011;32476;50.002;11.854;2022-12-18T06:18:02;4.83;;;3.37;;
46729;SDS011;32476;50.002;11.854;2022-12-18T06:20:28;8.87;;;4.37;;
46729;SDS011;32476;50.002;11.854;2022-12-18T06:22:56;10.43;;;5.93;;
46729;SDS011;32476;50.002;11.854;2022-12-18T06:25:21;7.50;;;4.10;;
46729;SDS011;32476;50.002;11.854;2022-12-18T06:27:47;4.37;;;2.90;;
46729;SDS011;32476;50.002;11.854;2022-12-18T06:30:15;7.40;;;3.57;;
46729;SDS011;32476;50.002;11.854;2022-12-18T06:32:41;9.60;;;4.83;;
46729;SDS011;32476;50.002;11.854;2022-12-18T06:35:07;9.10;;;5.17;;
46729;SDS011;32476;50.002;11.854;2022-12-18T06:37:34;8.13;;;4.23;;
46729;SDS011;32476;50.002;11.854;2022-12-18T06:40:00;10.13;;;4.50;;
46729;SDS011;32476;50.002;11.854;2022-12-18T06:42:27;10.27;;;4.43;;
46729;SDS011;32476;50.002;11.854;2022-12-18T06:44:55;8.77;;;4.30;;
46729;SDS011;32476;50.002;11.854;2022-12-18T06:47:21;8.97;;;4.20;;
46729;SDS011;32476;50.002;11.854;2022-12-18T06:49:47;10.20;;;5.10;;
46729;SDS011;32476;50.002;11.854;2022-12-18T06:52:15;7.40;;;4.27;;
46729;SDS011;32476;50.002;11.854;2022-12-18T06:54:41;7.70;;;4.87;;
46729;SDS011;32476;50.002;11.854;2022-12-18T06:57:07;9.60;;;4.13;;
46729;SDS011;32476;50.002;11.854;2022-12-18T06:59:34;6.83;;;4.20;;
46729;SDS011;32476;50.002;11.854;2022-12-18T07:02:00;8.23;;;4.87;;
46729;SDS011;32476;50.002;11.854;2022-12-18T07:04:29;10.87;;;5.20;;
46729;SDS011;32476;50.002;11.854;2022-12-18T07:06:57;8.30;;;5.47;;
46729;SDS011;32476;50.002;11.854;2022-12-18T07:09:23;10.47;;;5.73;;
46729;SDS011;32476;50.002;11.854;2022-12-18T07:11:50;8.77;;;4.93;;
46729;SDS011;32476;50.002;11.854;2022-12-18T07:14:17;8.63;;;4.97;;
46729;SDS011;32476;50.002;11.854;2022-12-18T07:16:43;8.57;;;5.37;;
46729;SDS011;32476;50.002;11.854;2022-12-18T07:19:09;7.97;;;4.17;;
46729;SDS011;32476;50.002;11.854;2022-12-18T07:21:36;9.33;;;3.93;;
46729;SDS011;32476;50.002;11.854;2022-12-18T07:24:02;6.67;;;4.03;;
46729;SDS011;32476;50.002;11.854;2022-12-18T07:26:29;13.93;;;6.60;;
46729;SDS011;32476;50.002;11.854;2022-12-18T07:28:57;8.43;;;5.57;;
46729;SDS011;32476;50.002;11.854;2022-12-18T07:31:23;20.80;;;11.07;;
46729;SDS011;32476;50.002;11.854;2022-12-18T07:33:50;9.97;;;5.43;;
46729;SDS011;32476;50.002;11.854;2022-12-18T07:36:19;7.20;;;4.37;;
46729;SDS011;32476;50.002;11.854;2022-12-18T07:38:48;6.43;;;4.17;;
46729;SDS011;32476;50.002;11.854;2022-12-18T07:41:15;14.67;;;8.30;;
46729;SDS011;32476;50.002;11.854;2022-12-18T07:43:43;9.13;;;6.27;;
46729;SDS011;32476;50.002;11.854;2022-12-18T07:46:09;13.87;;;6.10;;
46729;SDS011;32476;50.002;11.854;2022-12-18T07:48:38;6.27;;;4.40;;
46729;SDS011;32476;50.002;11.854;2022-12-18T07:51:07;11.60;;;5.53;;
46729;SDS011;32476;50.002;11.854;2022-12-18T07:53:34;38.67;;;23.03;;
46729;SDS011;32476;50.002;11.854;2022-12-18T07:56:02;29.33;;;20.37;;
46729;SDS011;32476;50.002;11.854;2022-12-18T07:58:32;61.10;;;32.07;;
46729;SDS011;32476;50.002;11.854;2022-12-18T08:01:05;112.73;;;51.03;;
46729;SDS011;32476;50.002;11.854;2022-12-18T08:03:35;74.10;;;26.77;;
46729;SDS011;32476;50.002;11.854;2022-12-18T08:06:03;24.83;;;11.30;;
46729;SDS011;32476;50.002;11.854;2022-12-18T08:08:32;30.40;;;12.37;;
46729;SDS011;32476;50.002;11.854;2022-12-18T08:11:00;44.07;;;18.17;;
46729;SDS011;32476;50.002;11.854;2022-12-18T08:13:27;214.57;;;62.60;;
46729;SDS011;32476;50.002;11.854;2022-12-18T08:16:06;41.87;;;16.17;;
46729;SDS011;32476;50.002;11.854;2022-12-18T08:18:34;48.60;;;18.57;;
46729;SDS011;32476;50.002;11.854;2022-12-18T08:23:41;28.80;;;11.60;;
46729;SDS011;32476;50.002;11.854;2022-12-18T08:26:08;70.20;;;23.60;;
46729;SDS011;32476;50.002;11.854;2022-12-18T08:28:37;48.80;;;19.63;;
46729;SDS011;32476;50.002;11.854;2022-12-18T08:31:05;141.00;;;45.97;;
46729;SDS011;32476;50.002;11.854;2022-12-18T08:33:32;127.83;;;42.73;;
46729;SDS011;32476;50.002;11.854;2022-12-18T08:35:59;115.00;;;43.80;;
46729;SDS011;32476;50.002;11.854;2022-12-18T08:38:27;134.13;;;47.63;;
46729;SDS011;32476;50.002;11.854;2022-12-18T08:40:58;153.90;;;54.57;;
46729;SDS011;32476;50.002;11.854;2022-12-18T08:43:25;239.47;;;72.43;;
46729;SDS011;32476;50.002;11.854;2022-12-18T08:46:11;129.07;;;47.87;;
46729;SDS011;32476;50.002;11.854;2022-12-18T08:48:40;127.10;;;43.53;;
46729;SDS011;32476;50.002;11.854;2022-12-18T08:51:07;113.57;;;46.23;;
46729;SDS011;32476;50.002;11.854;2022-12-18T08:53:36;102.10;;;38.87;;
46729;SDS011;32476;50.002;11.854;2022-12-18T08:56:03;110.63;;;41.37;;
46729;SDS011;32476;50.002;11.854;2022-12-18T08:58:30;27.30;;;13.47;;
46729;SDS011;32476;50.002;11.854;2022-12-18T09:01:01;33.03;;;13.67;;
46729;SDS011;32476;50.002;11.854;2022-12-18T09:03:29;24.93;;;11.17;;
46729;SDS011;32476;50.002;11.854;2022-12-18T09:05:57;15.57;;;9.00;;
46729;SDS011;32476;50.002;11.854;2022-12-18T09:08:23;15.83;;;8.30;;
46729;SDS011;32476;50.002;11.854;2022-12-18T09:10:49;11.90;;;5.43;;
46729;SDS011;32476;50.002;11.854;2022-12-18T09:13:17;32.67;;;10.20;;
46729;SDS011;32476;50.002;11.854;2022-12-18T09:15:44;10.90;;;4.70;;
46729;SDS011;32476;50.002;11.854;2022-12-18T09:18:19;9.67;;;5.27;;
46729;SDS011;32476;50.002;11.854;2022-12-18T09:20:47;7.53;;;4.50;;
46729;SDS011;32476;50.002;11.854;2022-12-18T09:23:13;7.77;;;4.27;;
46729;SDS011;32476;50.002;11.854;2022-12-18T09:25:41;6.93;;;3.60;;
46729;SDS011;32476;50.002;11.854;2022-12-18T09:28:14;5.40;;;3.20;;
46729;SDS011;32476;50.002;11.854;2022-12-18T09:30:49;9.70;;;3.50;;
46729;SDS011;32476;50.002;11.854;2022-12-18T09:33:16;6.60;;;3.00;;
46729;SDS011;32476;50.002;11.854;2022-12-18T09:35:42;5.37;;;3.10;;
46729;SDS011;32476;50.002;11.854;2022-12-18T09:38:13;5.63;;;3.37;;
46729;SDS011;32476;50.002;11.854;2022-12-18T09:40:43;38.40;;;15.57;;
46729;SDS011;32476;50.002;11.854;2022-12-18T09:43:24;39.47;;;18.63;;
46729;SDS011;32476;50.002;11.854;2022-12-18T09:46:03;13.20;;;6.50;;
46729;SDS011;32476;50.002;11.854;2022-12-18T09:48:36;87.80;;;39.90;;
46729;SDS011;32476;50.002;11.854;2022-12-18T09:51:12;68.93;;;31.13;;
46729;SDS011;32476;50.002;11.854;2022-12-18T09:53:53;30.57;;;16.23;;
46729;SDS011;32476;50.002;11.854;2022-12-18T09:56:26;11.47;;;5.80;;
46729;SDS011;32476;50.002;11.854;2022-12-18T09:59:02;11.40;;;5.23;;
46729;SDS011;32476;50.002;11.854;2022-12-18T10:01:29;10.43;;;4.33;;
46729;SDS011;32476;50.002;11.854;2022-12-18T10:03:57;9.80;;;4.67;;
46729;SDS011;32476;50.002;11.854;2022-12-18T10:09:26;11.53;;;6.03;;
46729;SDS011;32476;50.002;11.854;2022-12-18T10:12:16;12.17;;;6.90;;
46729;SDS011;32476;50.002;11.854;2022-12-18T10:15:32;11.10;;;5.53;;
46729;SDS011;32476;50.002;11.854;2022-12-18T10:21:32;12.37;;;8.07;;
46729;SDS011;32476;50.002;11.854;2022-12-18T10:25:02;10.93;;;6.73;;
46729;SDS011;32476;50.002;11.854;2022-12-18T10:27:31;8.13;;;5.73;;
46729;SDS011;32476;50.002;11.854;2022-12-18T10:29:58;9.90;;;4.80;;
46729;SDS011;32476;50.002;11.854;2022-12-18T10:32:29;15.17;;;10.83;;
46729;SDS011;32476;50.002;11.854;2022-12-18T10:34:56;10.70;;;7.53;;
46729;SDS011;32476;50.002;11.854;2022-12-18T10:37:25;9.17;;;5.43;;
46729;SDS011;32476;50.002;11.854;2022-12-18T10:42:42;13.00;;;8.13;;
46729;SDS011;32476;50.002;11.854;2022-12-18T10:45:13;20.33;;;12.83;;
46729;SDS011;32476;50.002;11.854;2022-12-18T10:47:53;15.33;;;10.60;;
46729;SDS011;32476;50.002;11.854;2022-12-18T10:52:58;13.17;;;6.33;;
46729;SDS011;32476;50.002;11.854;2022-12-18T10:55:29;8.87;;;4.63;;
46729;SDS011;32476;50.002;11.854;2022-12-18T11:01:11;9.90;;;7.03;;
46729;SDS011;32476;50.002;11.854;2022-12-18T11:03:44;20.10;;;9.23;;
46729;SDS011;32476;50.002;11.854;2022-12-18T11:06:24;19.70;;;8.53;;
46729;SDS011;32476;50.002;11.854;2022-12-18T11:09:02;11.57;;;5.50;;
46729;SDS011;32476;50.002;11.854;2022-12-18T11:11:49;10.03;;;5.33;;
46729;SDS011;32476;50.002;11.854;2022-12-18T11:14:50;25.10;;;11.67;;
46729;SDS011;32476;50.002;11.854;2022-12-18T11:17:29;14.03;;;7.37;;
46729;SDS011;32476;50.002;11.854;2022-12-18T11:20:01;14.57;;;6.80;;
46729;SDS011;32476;50.002;11.854;2022-12-18T11:22:33;19.10;;;8.03;;
46729;SDS011;32476;50.002;11.854;2022-12-18T11:25:16;18.90;;;8.27;;
46729;SDS011;32476;50.002;11.854;2022-12-18T11:27:52;16.23;;;7.90;;
46729;SDS011;32476;50.002;11.854;2022-12-18T11:30:27;17.30;;;8.33;;
46729;SDS011;32476;50.002;11.854;2022-12-18T11:35:50;13.37;;;7.60;;
46729;SDS011;32476;50.002;11.854;2022-12-18T11:38:24;17.20;;;8.77;;
46729;SDS011;32476;50.002;11.854;2022-12-18T11:40:55;19.00;;;8.90;;
46729;SDS011;32476;50.002;11.854;2022-12-18T11:46:24;14.40;;;7.87;;
46729;SDS011;32476;50.002;11.854;2022-12-18T11:48:58;13.63;;;7.67;;
46729;SDS011;32476;50.002;11.854;2022-12-18T11:51:37;10.30;;;5.03;;
46729;SDS011;32476;50.002;11.854;2022-12-18T11:54:14;10.70;;;5.60;;
46729;SDS011;32476;50.002;11.854;2022-12-18T11:56:47;9.90;;;5.43;;
46729;SDS011;32476;50.002;11.854;2022-12-18T12:02:13;8.10;;;4.17;;
46729;SDS011;32476;50.002;11.854;2022-12-18T12:05:34;8.27;;;4.17;;
46729;SDS011;32476;50.002;11.854;2022-12-18T12:14:34;11.60;;;5.13;;
46729;SDS011;32476;50.002;11.854;2022-12-18T12:17:43;13.37;;;5.63;;
46729;SDS011;32476;50.002;11.854;2022-12-18T12:25:53;9.00;;;4.53;;
46729;SDS011;32476;50.002;11.854;2022-12-18T12:28:59;10.53;;;5.40;;
46729;SDS011;32476;50.002;11.854;2022-12-18T12:40:33;7.97;;;4.40;;
46729;SDS011;32476;50.002;11.854;2022-12-18T12:46:07;12.00;;;5.10;;
46729;SDS011;32476;50.002;11.854;2022-12-18T12:48:40;8.97;;;4.60;;
46729;SDS011;32476;50.002;11.854;2022-12-18T12:51:17;10.43;;;4.97;;
46729;SDS011;32476;50.002;11.854;2022-12-18T12:53:49;12.17;;;5.20;;
46729;SDS011;32476;50.002;11.854;2022-12-18T12:56:17;12.67;;;5.53;;
46729;SDS011;32476;50.002;11.854;2022-12-18T13:01:49;14.67;;;6.50;;
46729;SDS011;32476;50.002;11.854;2022-12-18T13:05:14;15.33;;;7.17;;
46729;SDS011;32476;50.002;11.854;2022-12-18T13:10:32;16.40;;;8.03;;
46729;SDS011;32476;50.002;11.854;2022-12-18T13:13:08;17.47;;;8.93;;
46729;SDS011;32476;50.002;11.854;2022-12-18T13:15:38;17.50;;;8.77;;
46729;SDS011;32476;50.002;11.854;2022-12-18T13:18:15;18.63;;;9.07;;
46729;SDS011;32476;50.002;11.854;2022-12-18T13:20:49;15.63;;;8.10;;
46729;SDS011;32476;50.002;11.854;2022-12-18T13:23:31;17.00;;;8.27;;
46729;SDS011;32476;50.002;11.854;2022-12-18T13:31:12;15.23;;;8.17;;
46729;SDS011;32476;50.002;11.854;2022-12-18T13:34:26;25.53;;;13.17;;
46729;SDS011;32476;50.002;11.854;2022-12-18T13:36:57;19.10;;;9.33;;
46729;SDS011;32476;50.002;11.854;2022-12-18T13:39:57;18.10;;;8.63;;
46729;SDS011;32476;50.002;11.854;2022-12-18T13:48:03;31.80;;;17.27;;
46729;SDS011;32476;50.002;11.854;2022-12-18T13:50:31;18.23;;;9.30;;
46729;SDS011;32476;50.002;11.854;2022-12-18T13:52:59;20.53;;;8.10;;
46729;SDS011;32476;50.002;11.854;2022-12-18T13:55:25;29.00;;;16.30;;
46729;SDS011;32476;50.002;11.854;2022-12-18T13:58:02;21.27;;;10.53;;
46729;SDS011;32476;50.002;11.854;2022-12-18T14:00:30;22.93;;;11.13;;
46729;SDS011;32476;50.002;11.854;2022-12-18T14:02:59;18.03;;;9.03;;
46729;SDS011;32476;50.002;11.854;2022-12-18T14:05:26;20.10;;;10.37;;
46729;SDS011;32476;50.002;11.854;2022-12-18T14:07:55;19.73;;;10.50;;
46729;SDS011;32476;50.002;11.854;2022-12-18T14:10:28;17.77;;;8.97;;
46729;SDS011;32476;50.002;11.854;2022-12-18T14:12:54;17.70;;;8.23;;
46729;SDS011;32476;50.002;11.854;2022-12-18T14:17:54;19.43;;;9.37;;
46729;SDS011;32476;50.002;11.854;2022-12-18T14:20:27;18.20;;;8.63;;
46729;SDS011;32476;50.002;11.854;2022-12-18T14:22:57;18.73;;;9.47;;
46729;SDS011;32476;50.002;11.854;2022-12-18T14:25:28;19.47;;;9.47;;
46729;SDS011;32476;50.002;11.854;2022-12-18T14:30:36;19.23;;;9.17;;
46729;SDS011;32476;50.002;11.854;2022-12-18T14:33:11;21.00;;;9.30;;
46729;SDS011;32476;50.002;11.854;2022-12-18T14:35:54;17.90;;;9.07;;
46729;SDS011;32476;50.002;11.854;2022-12-18T14:41:11;16.20;;;9.37;;
46729;SDS011;32476;50.002;11.854;2022-12-18T14:43:42;22.80;;;10.10;;
46729;SDS011;32476;50.002;11.854;2022-12-18T14:52:01;30.13;;;13.87;;
46729;SDS011;32476;50.002;11.854;2022-12-18T14:54:55;25.83;;;10.37;;
46729;SDS011;32476;50.002;11.854;2022-12-18T14:57:22;26.57;;;12.50;;
46729;SDS011;32476;50.002;11.854;2022-12-18T14:59:50;27.20;;;11.70;;
46729;SDS011;32476;50.002;11.854;2022-12-18T15:02:19;33.60;;;12.90;;
46729;SDS011;32476;50.002;11.854;2022-12-18T15:05:03;31.33;;;13.50;;
46729;SDS011;32476;50.002;11.854;2022-12-18T15:07:55;27.27;;;13.57;;
46729;SDS011;32476;50.002;11.854;2022-12-18T15:10:25;34.93;;;16.67;;
46729;SDS011;32476;50.002;11.854;2022-12-18T15:23:20;36.30;;;16.80;;
46729;SDS011;32476;50.002;11.854;2022-12-18T15:25:47;66.60;;;30.97;;
46729;SDS011;32476;50.002;11.854;2022-12-18T15:28:32;61.80;;;27.87;;
46729;SDS011;32476;50.002;11.854;2022-12-18T15:36:18;59.77;;;28.67;;
46729;SDS011;32476;50.002;11.854;2022-12-18T15:38:48;54.90;;;27.10;;
46729;SDS011;32476;50.002;11.854;2022-12-18T15:41:17;69.80;;;31.80;;
46729;SDS011;32476;50.002;11.854;2022-12-18T15:43:46;88.13;;;45.63;;
46729;SDS011;32476;50.002;11.854;2022-12-18T15:46:16;82.90;;;40.67;;
46729;SDS011;32476;50.002;11.854;2022-12-18T15:48:52;66.33;;;33.47;;
46729;SDS011;32476;50.002;11.854;2022-12-18T15:51:31;66.47;;;33.07;;
46729;SDS011;32476;50.002;11.854;2022-12-18T15:54:02;70.77;;;35.30;;
46729;SDS011;32476;50.002;11.854;2022-12-18T15:56:31;94.80;;;47.67;;
46729;SDS011;32476;50.002;11.854;2022-12-18T15:59:19;73.73;;;37.20;;
46729;SDS011;32476;50.002;11.854;2022-12-18T16:01:47;67.57;;;33.00;;
46729;SDS011;32476;50.002;11.854;2022-12-18T16:04:16;54.33;;;25.53;;
46729;SDS011;32476;50.002;11.854;2022-12-18T16:06:50;52.57;;;26.40;;
46729;SDS011;32476;50.002;11.854;2022-12-18T16:09:16;64.40;;;29.43;;
46729;SDS011;32476;50.002;11.854;2022-12-18T16:11:43;46.80;;;23.90;;
46729;SDS011;32476;50.002;11.854;2022-12-18T16:14:17;47.93;;;21.93;;
46729;SDS011;32476;50.002;11.854;2022-12-18T16:16:53;52.43;;;22.43;;
46729;SDS011;32476;50.002;11.854;2022-12-18T16:19:23;56.07;;;26.37;;
46729;SDS011;32476;50.002;11.854;2022-12-18T16:21:50;68.30;;;30.63;;
46729;SDS011;32476;50.002;11.854;2022-12-18T16:24:19;58.00;;;27.63;;
46729;SDS011;32476;50.002;11.854;2022-12-18T16:26:49;48.23;;;22.30;;
46729;SDS011;32476;50.002;11.854;2022-12-18T16:29:17;44.13;;;20.10;;
46729;SDS011;32476;50.002;11.854;2022-12-18T16:31:44;35.93;;;16.63;;
46729;SDS011;32476;50.002;11.854;2022-12-18T16:34:21;41.20;;;17.87;;
46729;SDS011;32476;50.002;11.854;2022-12-18T16:36:53;39.73;;;19.17;;
46729;SDS011;32476;50.002;11.854;2022-12-18T16:39:26;46.30;;;22.40;;
46729;SDS011;32476;50.002;11.854;2022-12-18T16:41:52;50.50;;;24.07;;
46729;SDS011;32476;50.002;11.854;2022-12-18T16:44:19;66.60;;;28.93;;
46729;SDS011;32476;50.002;11.854;2022-12-18T16:46:47;71.50;;;30.77;;
46729;SDS011;32476;50.002;11.854;2022-12-18T16:49:13;64.27;;;30.27;;
46729;SDS011;32476;50.002;11.854;2022-12-18T16:51:41;59.37;;;29.50;;
46729;SDS011;32476;50.002;11.854;2022-12-18T16:54:09;50.00;;;27.23;;